Time;durP1;ratioP1;P1;durP2;ratioP2;P2;SDS_P1;SDS_P2;PMS_P1;PMS_P2;Temp;Humidity;BMP_temperature;BMP_pressure;BME280_temperature;BME280_humidity;BME280_pressure;Samples;Min_cycle;Max_cycle;Signal;HPM_P1;HPM_P2
2022/01/04 00:01:29;;;;;;;1999.90;999.90;;;;;;;3.26;57.47;99812.06;4926840;28;99222;-70
2022/01/04 00:03:58;;;;;;;1999.90;999.90;;;;;;;3.28;57.36;99815.63;4966800;28;98624;-69
2022/01/04 00:06:26;;;;;;;1999.90;999.90;;;;;;;3.29;57.52;99812.16;4938641;28;97293;-70
2022/01/04 00:08:58;;;;;;;1999.90;999.90;;;;;;;3.28;57.51;99819.13;4935412;28;97425;-70
2022/01/04 00:11:42;;;;;;;1999.90;999.90;;;;;;;3.29;57.32;99815.69;4936922;28;97690;-70
2022/01/04 00:14:09;;;;;;;1999.90;999.90;;;;;;;3.29;57.23;99810.41;4930406;28;97874;-70
2022/01/04 00:16:37;;;;;;;1999.90;999.90;;;;;;;3.30;57.41;99811.28;4935051;28;96834;-70
2022/01/04 00:19:06;;;;;;;1999.90;999.90;;;;;;;3.29;57.28;99799.00;4934965;28;98320;-70
2022/01/04 00:21:34;;;;;;;1999.90;999.90;;;;;;;3.30;57.68;99795.53;4932882;28;97012;-69
2022/01/04 00:24:02;;;;;;;1999.90;999.90;;;;;;;3.30;57.59;99791.16;4932642;28;98833;-70
2022/01/04 00:26:30;;;;;;;1999.90;999.90;;;;;;;3.31;57.61;99789.44;4936270;28;96881;-70
2022/01/04 00:28:57;;;;;;;1999.90;999.90;;;;;;;3.32;57.47;99783.31;4934302;28;97090;-70
2022/01/04 00:31:25;;;;;;;1999.90;999.90;;;;;;;3.32;57.72;99776.34;4934591;28;99214;-70
2022/01/04 00:33:53;;;;;;;1999.90;999.90;;;;;;;3.34;57.56;99777.28;4932440;28;97586;-70
2022/01/04 00:36:22;;;;;;;1999.90;999.90;;;;;;;3.34;57.47;99777.28;4933985;28;97320;-69
2022/01/04 00:38:50;;;;;;;1999.90;999.90;;;;;;;3.35;57.73;99759.78;4939409;28;97193;-70
2022/01/04 00:41:17;;;;;;;1999.90;999.90;;;;;;;3.35;57.71;99759.78;4938906;28;97808;-70
2022/01/04 00:43:45;;;;;;;1999.90;999.90;;;;;;;3.34;57.60;99761.50;4923304;28;99174;-70
2022/01/04 00:46:16;;;;;;;1999.90;999.90;;;;;;;3.35;57.53;99757.16;4940729;28;99061;-70
2022/01/04 00:51:32;;;;;;;1999.90;999.90;;;;;;;3.36;57.83;99764.19;4934574;28;97818;-70
2022/01/04 00:54:00;;;;;;;1999.90;999.90;;;;;;;3.36;57.43;99762.47;4940759;28;98754;-70
2022/01/04 00:56:27;;;;;;;1999.90;999.90;;;;;;;3.36;57.67;99759.84;4939010;28;98393;-70
2022/01/04 00:58:55;;;;;;;1999.90;999.90;;;;;;;3.38;57.56;99757.25;4936601;28;96961;-70
2022/01/04 01:01:23;;;;;;;1999.90;999.90;;;;;;;3.36;57.77;99748.41;4921498;28;97737;-70
2022/01/04 01:03:51;;;;;;;1999.90;999.90;;;;;;;3.36;57.58;99744.06;4938723;28;97561;-70
2022/01/04 01:06:18;;;;;;;1999.90;999.90;;;;;;;3.35;57.79;99737.00;4938970;28;97187;-70
2022/01/04 01:08:48;;;;;;;1999.90;999.90;;;;;;;3.35;57.81;99736.13;4938476;28;98066;-69
2022/01/04 01:11:16;;;;;;;1999.90;999.90;;;;;;;3.35;57.55;99733.50;4936802;28;99755;-69
2022/01/04 01:13:44;;;;;;;1999.90;999.90;;;;;;;3.37;57.49;99729.19;4935057;28;100928;-69
2022/01/04 01:16:13;;;;;;;1999.90;999.90;;;;;;;3.35;57.96;99728.25;4925056;28;97266;-69
2022/01/04 01:18:40;;;;;;;1999.90;999.90;;;;;;;3.35;57.77;99725.59;4954584;28;97006;-70
2022/01/04 01:21:09;;;;;;;1999.90;999.90;;;;;;;3.37;57.66;99722.16;4939060;28;99308;-70
2022/01/04 01:23:37;;;;;;;1999.90;999.90;;;;;;;3.37;57.49;99709.03;4932825;28;97189;-70
2022/01/04 01:26:08;;;;;;;1999.90;999.90;;;;;;;3.37;57.94;99711.66;4929981;28;96807;-70
2022/01/04 01:28:36;;;;;;;1999.90;999.90;;;;;;;3.37;57.72;99697.63;4968563;28;97705;-70
2022/01/04 01:31:06;;;;;;;1999.90;999.90;;;;;;;3.39;57.85;99699.44;4937168;28;99192;-70
2022/01/04 01:33:34;;;;;;;1999.90;999.90;;;;;;;3.40;57.40;99688.09;4934921;28;97707;-70
2022/01/04 01:36:02;;;;;;;1999.90;999.90;;;;;;;3.41;57.70;99695.13;4951832;28;98074;-70
2022/01/04 01:38:30;;;;;;;1999.90;999.90;;;;;;;3.41;57.64;99689.88;4938648;28;96795;-69
2022/01/04 01:40:58;;;;;;;1999.90;999.90;;;;;;;3.42;57.54;99686.41;4934115;28;98894;-69
2022/01/04 01:43:29;;;;;;;1999.90;999.90;;;;;;;3.41;57.55;99679.34;4936085;28;98054;-69
2022/01/04 01:45:57;;;;;;;1999.90;999.90;;;;;;;3.41;57.84;99683.72;4937545;28;97206;-70
2022/01/04 01:48:26;;;;;;;1999.90;999.90;;;;;;;3.40;58.15;99672.34;4934399;28;97132;-69
2022/01/04 01:50:53;;;;;;;1999.90;999.90;;;;;;;3.42;57.67;99664.50;4939524;28;98548;-69
2022/01/04 01:53:22;;;;;;;1999.90;999.90;;;;;;;3.42;57.80;99649.63;4937140;28;98887;-69
2022/01/04 01:55:51;;;;;;;1999.90;999.90;;;;;;;3.41;58.07;99653.06;4938017;28;97121;-70
2022/01/04 01:58:19;;;;;;;1999.90;999.90;;;;;;;3.40;57.94;99640.78;4936328;28;97311;-69
2022/01/04 02:00:48;;;;;;;1999.90;999.90;;;;;;;3.43;57.80;99651.38;4932516;28;97984;-69
2022/01/04 02:03:15;;;;;;;1999.90;999.90;;;;;;;3.43;58.07;99656.63;4938358;28;98987;-69
2022/01/04 02:05:43;;;;;;;1999.90;999.90;;;;;;;3.45;57.94;99654.06;4934821;28;97400;-70
2022/01/04 02:08:12;;;;;;;1999.90;999.90;;;;;;;3.44;58.00;99652.28;4933938;28;98859;-70
2022/01/04 02:10:41;;;;;;;1999.90;999.90;;;;;;;3.45;57.69;99647.06;4935920;28;97663;-70
2022/01/04 02:13:09;;;;;;;1999.90;999.90;;;;;;;3.47;57.52;99640.13;4934773;28;98772;-70
2022/01/04 02:15:36;;;;;;;1999.90;999.90;;;;;;;3.47;57.81;99641.84;4936035;28;96885;-70
2022/01/04 02:18:06;;;;;;;1999.90;999.90;;;;;;;3.47;57.43;99629.59;4934871;28;97402;-69
2022/01/04 02:20:35;;;;;;;1999.90;999.90;;;;;;;3.46;57.90;99614.66;4935102;28;102296;-69
2022/01/04 02:23:03;;;;;;;1999.90;999.90;;;;;;;3.47;57.97;99611.19;4933913;28;98901;-69
2022/01/04 02:25:30;;;;;;;1999.90;999.90;;;;;;;3.48;58.11;99607.72;4936738;28;96855;-69
2022/01/04 02:27:58;;;;;;;1999.90;999.90;;;;;;;3.47;57.96;99615.56;4939408;28;96947;-69
2022/01/04 02:30:26;;;;;;;1999.90;999.90;;;;;;;3.48;58.00;99607.72;4934760;28;97676;-69
2022/01/04 02:32:54;;;;;;;1999.90;999.90;;;;;;;3.48;57.62;99607.72;4936529;28;99452;-68
2022/01/04 02:35:25;;;;;;;1999.90;999.90;;;;;;;3.48;57.46;99604.22;4933901;28;97047;-69
2022/01/04 02:37:55;;;;;;;1999.90;999.90;;;;;;;3.49;57.80;99601.63;4939508;28;96944;-69
2022/01/04 02:40:23;;;;;;;1999.90;999.90;;;;;;;3.49;57.91;99604.25;4917582;28;99215;-69
2022/01/04 02:42:52;;;;;;;1999.90;999.90;;;;;;;3.50;57.68;99595.50;4937834;28;97420;-68
2022/01/04 02:45:19;;;;;;;1999.90;999.90;;;;;;;3.51;57.59;99592.03;4937245;28;98726;-69
2022/01/04 02:47:47;;;;;;;1999.90;999.90;;;;;;;3.52;57.59;99593.81;4933085;28;97896;-69
2022/01/04 02:50:15;;;;;;;1999.90;999.90;;;;;;;3.51;57.97;99594.69;4930645;28;99295;-69
2022/01/04 02:52:43;;;;;;;1999.90;999.90;;;;;;;3.54;57.92;99588.59;4966587;28;97094;-69
2022/01/04 02:55:14;;;;;;;1999.90;999.90;;;;;;;3.50;57.81;99577.09;4933805;28;97031;-69
2022/01/04 02:57:42;;;;;;;1999.90;999.90;;;;;;;3.50;58.06;99569.19;4931817;28;98652;-69
2022/01/04 03:00:13;;;;;;;1999.90;999.90;;;;;;;3.51;58.16;99575.38;4936164;28;99519;-69
2022/01/04 03:02:41;;;;;;;1999.90;999.90;;;;;;;3.51;57.66;99576.25;4929159;28;98013;-69
2022/01/04 03:05:10;;;;;;;1999.90;999.90;;;;;;;3.51;57.93;99571.00;4931225;28;98183;-69
2022/01/04 03:07:38;;;;;;;1999.90;999.90;;;;;;;3.50;58.14;99569.19;4932455;28;96748;-69
2022/01/04 03:10:07;;;;;;;1999.90;999.90;;;;;;;3.51;57.89;99565.75;4938868;28;99175;-69
2022/01/04 03:12:39;;;;;;;1999.90;999.90;;;;;;;3.52;58.03;99558.72;4936675;28;99407;-69
2022/01/04 03:15:07;;;;;;;1999.90;999.90;;;;;;;3.52;57.91;99548.22;4936857;28;97555;-69
2022/01/04 03:17:35;;;;;;;1999.90;999.90;;;;;;;3.51;58.07;99547.34;4922832;28;96075;-69
2022/01/04 03:20:04;;;;;;;1999.90;999.90;;;;;;;3.52;58.23;99546.47;4936370;28;100841;-69
2022/01/04 03:22:32;;;;;;;1999.90;999.90;;;;;;;3.53;58.09;99542.13;4939223;28;96894;-69
2022/01/04 03:25:00;;;;;;;1999.90;999.90;;;;;;;3.53;57.86;99543.00;4935229;28;98319;-69
2022/01/04 03:27:29;;;;;;;1999.90;999.90;;;;;;;3.54;57.99;99536.00;4940578;28;97038;-69
2022/01/04 03:29:58;;;;;;;1999.90;999.90;;;;;;;3.53;58.07;99528.97;4942342;28;99210;-69
2022/01/04 03:32:26;;;;;;;1999.90;999.90;;;;;;;3.53;57.91;99523.72;4943066;28;97616;-69
2022/01/04 03:34:54;;;;;;;1999.90;999.90;;;;;;;3.53;57.88;99516.69;4937617;28;96805;-69
2022/01/04 03:37:21;;;;;;;1999.90;999.90;;;;;;;3.54;58.20;99513.22;4939625;28;97629;-70
2022/01/04 03:39:49;;;;;;;1999.90;999.90;;;;;;;3.54;58.06;99504.44;4938477;28;98083;-69
2022/01/04 03:42:17;;;;;;;1999.90;999.90;;;;;;;3.55;58.16;99512.38;4939207;28;97558;-69
2022/01/04 03:44:44;;;;;;;1999.90;999.90;;;;;;;3.55;57.99;99496.59;4935834;28;96995;-69
2022/01/04 03:47:13;;;;;;;1999.90;999.90;;;;;;;3.56;58.14;99487.88;4938927;28;97117;-69
2022/01/04 03:49:41;;;;;;;1999.90;999.90;;;;;;;3.54;57.96;99489.56;4935856;28;100699;-69
2022/01/04 03:52:09;;;;;;;1999.90;999.90;;;;;;;3.55;58.36;99478.19;4939616;28;97600;-69
2022/01/04 03:54:36;;;;;;;1999.90;999.90;;;;;;;3.52;58.21;99475.47;4936054;28;97420;-69
2022/01/04 03:57:05;;;;;;;1999.90;999.90;;;;;;;3.51;58.50;99472.81;4941850;28;97118;-69
2022/01/04 03:59:32;;;;;;;1999.90;999.90;;;;;;;3.51;58.38;99472.81;4940676;28;98661;-69
2022/01/04 04:02:01;;;;;;;1999.90;999.90;;;;;;;3.48;58.39;99468.34;4940545;28;98906;-69
2022/01/04 04:04:30;;;;;;;1999.90;999.90;;;;;;;3.47;58.42;99470.94;4936538;28;97441;-69
2022/01/04 04:06:58;;;;;;;1999.90;999.90;;;;;;;3.46;58.72;99463.91;4937655;28;96920;-70
2022/01/04 04:09:25;;;;;;;1999.90;999.90;;;;;;;3.46;58.35;99459.50;4933869;28;98385;-69
2022/01/04 04:11:53;;;;;;;1999.90;999.90;;;;;;;3.47;58.40;99456.06;4935374;28;98866;-69
2022/01/04 04:14:21;;;;;;;1999.90;999.90;;;;;;;3.48;58.57;99455.19;4939400;28;96805;-69
2022/01/04 04:17:08;;;;;;;1999.90;999.90;;;;;;;3.45;58.41;99452.50;4937435;28;96755;-69
2022/01/04 04:19:37;;;;;;;1999.90;999.90;;;;;;;3.41;58.93;99450.63;4934184;28;99249;-69
2022/01/04 04:22:05;;;;;;;1999.90;999.90;;;;;;;3.41;58.73;99447.97;4934905;28;100560;-69
2022/01/04 04:24:33;;;;;;;1999.90;999.90;;;;;;;3.42;58.66;99449.78;4921529;28;98091;-69
2022/01/04 04:27:00;;;;;;;1999.90;999.90;;;;;;;3.44;58.48;99437.53;4935762;28;97113;-70
2022/01/04 04:29:28;;;;;;;1999.90;999.90;;;;;;;3.46;58.85;99427.97;4933701;28;97922;-69
2022/01/04 04:31:56;;;;;;;1999.90;999.90;;;;;;;3.47;58.61;99420.97;4934975;28;97888;-69
2022/01/04 04:34:24;;;;;;;1999.90;999.90;;;;;;;3.50;58.66;99415.78;4936658;28;97453;-69
2022/01/04 04:36:53;;;;;;;1999.90;999.90;;;;;;;3.50;58.64;99418.41;4935574;28;98238;-69
2022/01/04 04:39:21;;;;;;;1999.90;999.90;;;;;;;3.50;58.70;99416.69;4937526;28;100631;-69
2022/01/04 04:41:49;;;;;;;1999.90;999.90;;;;;;;3.51;58.89;99410.59;4933136;28;97635;-69
2022/01/04 04:44:17;;;;;;;1999.90;999.90;;;;;;;3.52;58.51;99404.47;4936864;28;96772;-69
2022/01/04 04:46:45;;;;;;;1999.90;999.90;;;;;;;3.53;58.77;99408.00;4934488;28;96898;-69
2022/01/04 04:49:13;;;;;;;1999.90;999.90;;;;;;;3.53;58.52;99400.97;4934566;28;99445;-69
2022/01/04 04:51:40;;;;;;;1999.90;999.90;;;;;;;3.53;58.44;99398.34;4937641;28;99075;-68
2022/01/04 04:54:09;;;;;;;1999.90;999.90;;;;;;;3.54;58.40;99394.91;4935826;28;97200;-68
2022/01/04 04:56:38;;;;;;;1999.90;999.90;;;;;;;3.55;58.54;99394.03;4932027;28;98909;-71
2022/01/04 04:59:06;;;;;;;1999.90;999.90;;;;;;;3.54;58.53;99394.00;4933554;28;98500;-70
2022/01/04 05:01:34;;;;;;;1999.90;999.90;;;;;;;3.54;58.40;99388.72;4928745;28;97729;-68
2022/01/04 05:04:02;;;;;;;1999.90;999.90;;;;;;;3.52;58.68;99377.28;4934626;28;98749;-68
2022/01/04 05:06:30;;;;;;;1999.90;999.90;;;;;;;3.53;58.85;99379.09;4929033;28;98355;-68
2022/01/04 05:08:59;;;;;;;1999.90;999.90;;;;;;;3.54;58.93;99370.31;4935830;28;97808;-68
2022/01/04 05:11:28;;;;;;;1999.90;999.90;;;;;;;3.56;58.97;99368.63;4953709;28;99793;-68
2022/01/04 05:13:56;;;;;;;1999.90;999.90;;;;;;;3.57;58.92;99371.28;4940020;28;96848;-68
2022/01/04 05:16:23;;;;;;;1999.90;999.90;;;;;;;3.57;58.56;99363.41;4936601;28;98030;-69
2022/01/04 05:18:51;;;;;;;1999.90;999.90;;;;;;;3.57;58.51;99358.16;4936109;28;100726;-68
2022/01/04 05:21:19;;;;;;;1999.90;999.90;;;;;;;3.58;58.77;99357.31;4919216;28;99213;-68
2022/01/04 05:23:47;;;;;;;1999.90;999.90;;;;;;;3.59;58.67;99347.66;4930117;28;97973;-68
2022/01/04 05:26:14;;;;;;;1999.90;999.90;;;;;;;3.59;58.52;99335.41;4934562;28;98232;-68
2022/01/04 05:28:45;;;;;;;1999.90;999.90;;;;;;;3.61;58.50;99336.34;4937252;28;99666;-68
2022/01/04 05:31:13;;;;;;;1999.90;999.90;;;;;;;3.61;58.60;99320.56;4937027;28;99082;-68
2022/01/04 05:33:42;;;;;;;1999.90;999.90;;;;;;;3.63;58.89;99312.72;4934956;28;96976;-69
2022/01/04 05:36:09;;;;;;;1999.90;999.90;;;;;;;3.61;58.45;99307.41;4934434;28;96862;-68
2022/01/04 05:38:37;;;;;;;1999.90;999.90;;;;;;;3.62;58.74;99306.59;4968057;28;99252;-68
2022/01/04 05:41:05;;;;;;;1999.90;999.90;;;;;;;3.62;58.59;99301.31;4937824;28;97857;-67
2022/01/04 05:43:32;;;;;;;1999.90;999.90;;;;;;;3.62;58.23;99311.84;4935227;28;97072;-68
2022/01/04 05:46:02;;;;;;;1999.90;999.90;;;;;;;3.59;58.60;99303.84;4937256;28;96799;-69
2022/01/04 05:48:30;;;;;;;1999.90;999.90;;;;;;;3.58;58.50;99291.56;4934485;28;100328;-66
2022/01/04 05:50:57;;;;;;;1999.90;999.90;;;;;;;3.59;58.56;99290.72;4938078;28;99841;-68
2022/01/04 05:53:31;;;;;;;1999.90;999.90;;;;;;;3.60;58.41;99288.97;4936487;28;97355;-68
2022/01/04 05:55:58;;;;;;;1999.90;999.90;;;;;;;3.60;58.57;99289.88;4934221;28;97570;-68
2022/01/04 05:58:26;;;;;;;1999.90;999.90;;;;;;;3.62;58.62;99287.28;4933530;28;98536;-68
2022/01/04 06:00:54;;;;;;;1999.90;999.90;;;;;;;3.61;58.77;99288.09;4930906;28;97266;-68
2022/01/04 06:03:23;;;;;;;1999.90;999.90;;;;;;;3.57;58.48;99281.88;4949128;28;98066;-70
2022/01/04 06:05:51;;;;;;;1999.90;999.90;;;;;;;3.53;58.54;99273.91;4932912;28;98412;-68
2022/01/04 06:08:20;;;;;;;1999.90;999.90;;;;;;;3.52;58.92;99266.84;4936407;28;101337;-68
2022/01/04 06:10:51;;;;;;;1999.90;999.90;;;;;;;3.48;58.58;99263.25;4932881;28;99238;-68
2022/01/04 06:16:04;;;;;;;1999.90;999.90;;;;;;;3.49;58.80;99272.03;4907172;28;97816;-68
2022/01/04 06:18:33;;;;;;;1999.90;999.90;;;;;;;3.50;58.88;99260.66;4934315;28;99478;-68
2022/01/04 06:21:00;;;;;;;1999.90;999.90;;;;;;;3.54;58.80;99259.88;4934917;28;97746;-68
2022/01/04 06:23:28;;;;;;;1999.90;999.90;;;;;;;3.56;58.83;99260.81;4936489;28;98613;-68
2022/01/04 06:25:56;;;;;;;1999.90;999.90;;;;;;;3.56;58.78;99243.31;4936094;28;96850;-68
2022/01/04 06:28:23;;;;;;;1999.90;999.90;;;;;;;3.59;58.64;99239.84;4933233;28;99113;-68
2022/01/04 06:30:51;;;;;;;1999.90;999.90;;;;;;;3.59;58.88;99240.75;4934970;28;99508;-69
2022/01/04 06:33:19;;;;;;;1999.90;999.90;;;;;;;3.59;58.82;99238.09;4936342;28;98029;-69
2022/01/04 06:35:49;;;;;;;1999.90;999.90;;;;;;;3.60;58.64;99244.25;4933649;28;97235;-69
2022/01/04 06:38:17;;;;;;;1999.90;999.90;;;;;;;3.59;58.96;99243.38;4935783;28;97370;-69
2022/01/04 06:40:45;;;;;;;1999.90;999.90;;;;;;;3.57;58.88;99238.94;4935562;28;98682;-69
2022/01/04 06:43:12;;;;;;;1999.90;999.90;;;;;;;3.57;58.48;99244.22;4932382;28;97624;-69
2022/01/04 06:45:40;;;;;;;1999.90;999.90;;;;;;;3.58;58.74;99238.97;4933785;28;97259;-69
2022/01/04 06:48:09;;;;;;;1999.90;999.90;;;;;;;3.62;58.59;99242.56;4932060;28;99757;-69
2022/01/04 06:50:37;;;;;;;1999.90;999.90;;;;;;;3.59;58.64;99238.09;4926962;28;99095;-69
2022/01/04 06:53:06;;;;;;;1999.90;999.90;;;;;;;3.58;58.54;99232.81;4935642;28;98724;-69
2022/01/04 06:55:34;;;;;;;1999.90;999.90;;;;;;;3.54;58.38;99237.13;4936571;28;96861;-69
2022/01/04 06:58:04;;;;;;;1999.90;999.90;;;;;;;3.53;58.77;99245.84;4935826;28;97659;-68
2022/01/04 07:00:31;;;;;;;1999.90;999.90;;;;;;;3.51;58.67;99250.19;4934978;28;98636;-69
2022/01/04 07:03:00;;;;;;;1999.90;999.90;;;;;;;3.48;58.63;99255.38;4931102;28;97337;-69
2022/01/04 07:05:29;;;;;;;1999.90;999.90;;;;;;;3.46;58.95;99246.53;4934282;28;97167;-68
2022/01/04 07:07:56;;;;;;;1999.90;999.90;;;;;;;3.43;58.50;99242.94;4936153;28;97772;-69
2022/01/04 07:10:26;;;;;;;1999.90;999.90;;;;;;;3.42;58.89;99236.81;4936801;28;97623;-70
2022/01/04 07:12:54;;;;;;;1999.90;999.90;;;;;;;3.40;58.93;99235.91;4935138;28;98116;-69
2022/01/04 07:15:22;;;;;;;1999.90;999.90;;;;;;;3.43;58.96;99242.94;4934443;28;97571;-69
2022/01/04 07:17:49;;;;;;;1999.90;999.90;;;;;;;3.43;59.24;99242.94;4952372;28;96909;-69
2022/01/04 07:20:17;;;;;;;1999.90;999.90;;;;;;;3.40;58.94;99243.78;4937435;28;97779;-69
2022/01/04 07:22:45;;;;;;;1999.90;999.90;;;;;;;3.39;58.61;99233.19;4935740;28;97875;-69
2022/01/04 07:25:13;;;;;;;1999.90;999.90;;;;;;;3.38;58.77;99226.19;4933300;28;96964;-69
2022/01/04 07:27:41;;;;;;;1999.90;999.90;;;;;;;3.40;58.98;99229.75;4934342;28;97996;-69
2022/01/04 07:30:10;;;;;;;1999.90;999.90;;;;;;;3.43;58.66;99220.19;4934348;28;97196;-69
2022/01/04 07:32:38;;;;;;;1999.90;999.90;;;;;;;3.46;58.98;99209.75;4951262;28;96987;-69
2022/01/04 07:35:07;;;;;;;1999.90;999.90;;;;;;;3.48;58.64;99202.78;4934981;28;96812;-69
2022/01/04 07:37:35;;;;;;;1999.90;999.90;;;;;;;3.51;58.42;99194.97;4931175;28;100428;-69
2022/01/04 07:40:03;;;;;;;1999.90;999.90;;;;;;;3.54;58.75;99200.31;4926405;28;100253;-69
2022/01/04 07:42:31;;;;;;;1999.90;999.90;;;;;;;3.56;58.58;99198.59;4933475;28;97188;-68
2022/01/04 07:45:02;;;;;;;1999.90;999.90;;;;;;;3.56;58.41;99201.22;4938143;28;96837;-69
2022/01/04 07:47:30;;;;;;;1999.90;999.90;;;;;;;3.55;58.37;99204.69;4934765;28;99433;-69
2022/01/04 07:49:57;;;;;;;1999.90;999.90;;;;;;;3.56;58.46;99206.50;4935853;28;97665;-69
2022/01/04 07:52:25;;;;;;;1999.90;999.90;;;;;;;3.58;58.35;99206.53;4936407;28;97922;-69
2022/01/04 07:54:53;;;;;;;1999.90;999.90;;;;;;;3.60;58.60;99202.19;4952091;28;97063;-69
2022/01/04 07:57:21;;;;;;;1999.90;999.90;;;;;;;3.61;58.39;99196.97;4935988;28;98867;-69
2022/01/04 07:59:49;;;;;;;1999.90;999.90;;;;;;;3.61;58.52;99196.97;4933855;28;97865;-69
2022/01/04 08:02:18;;;;;;;1999.90;999.90;;;;;;;3.62;58.60;99196.13;4936419;28;96982;-69
2022/01/04 08:04:45;;;;;;;1999.90;999.90;;;;;;;3.64;58.38;99175.97;4918517;28;96903;-69
2022/01/04 08:07:13;;;;;;;1999.90;999.90;;;;;;;3.65;58.28;99174.28;4939693;28;97319;-69
2022/01/04 08:09:42;;;;;;;1999.90;999.90;;;;;;;3.65;58.58;99164.66;4915872;28;97742;-69
2022/01/04 08:12:11;;;;;;;1999.90;999.90;;;;;;;3.66;58.54;99166.41;4911338;28;98362;-69
2022/01/04 08:14:38;;;;;;;1999.90;999.90;;;;;;;3.65;58.45;99159.41;4937484;28;97536;-69
2022/01/04 08:17:06;;;;;;;1999.90;999.90;;;;;;;3.62;58.37;99151.41;4940614;28;98863;-69
2022/01/04 08:19:36;;;;;;;1999.90;999.90;;;;;;;3.63;58.74;99152.28;4934776;28;99362;-69
2022/01/04 08:22:04;;;;;;;1999.90;999.90;;;;;;;3.64;58.65;99157.56;4939018;28;97175;-69
2022/01/04 08:24:32;;;;;;;1999.90;999.90;;;;;;;3.66;58.34;99160.31;4926163;28;100009;-69
2022/01/04 08:27:00;;;;;;;1999.90;999.90;;;;;;;3.66;58.65;99153.28;4936872;28;97691;-69
2022/01/04 08:29:29;;;;;;;1999.90;999.90;;;;;;;3.67;58.21;99155.06;4938696;28;99739;-69
2022/01/04 08:32:00;;;;;;;1999.90;999.90;;;;;;;3.66;58.43;99150.66;4966397;28;96951;-69
2022/01/04 08:34:29;;;;;;;1999.90;999.90;;;;;;;3.66;58.62;99145.38;4937288;28;96778;-69
2022/01/04 08:36:58;;;;;;;1999.90;999.90;;;;;;;3.69;58.15;99150.75;4973759;28;100467;-70
2022/01/04 08:39:27;;;;;;;1999.90;999.90;;;;;;;3.68;58.30;99156.84;4940554;28;99640;-70
2022/01/04 08:41:59;;;;;;;1999.90;999.90;;;;;;;3.66;58.60;99157.66;4942368;28;96841;-68
2022/01/04 08:44:28;;;;;;;1999.90;999.90;;;;;;;3.64;58.70;99157.56;4941902;28;98391;-70
2022/01/04 08:46:55;;;;;;;1999.90;999.90;;;;;;;3.59;58.35;99159.22;4942822;28;97641;-69
2022/01/04 08:49:26;;;;;;;1999.90;999.90;;;;;;;3.59;58.44;99161.84;4939968;28;97809;-69
2022/01/04 08:51:54;;;;;;;1999.90;999.90;;;;;;;3.53;58.32;99153.81;4942323;28;97158;-70
2022/01/04 08:54:23;;;;;;;1999.90;999.90;;;;;;;3.51;58.68;99155.53;4923293;28;96781;-69
2022/01/04 08:56:51;;;;;;;1999.90;999.90;;;;;;;3.51;59.06;99145.03;4935351;28;99584;-68
2022/01/04 08:59:19;;;;;;;1999.90;999.90;;;;;;;3.53;59.06;99147.69;4939427;28;97696;-69
2022/01/04 09:01:47;;;;;;;1999.90;999.90;;;;;;;3.54;59.04;99142.47;4940148;28;96864;-69
2022/01/04 09:04:15;;;;;;;1999.90;999.90;;;;;;;3.54;58.75;99154.72;4925541;28;97072;-69
2022/01/04 09:06:43;;;;;;;1999.90;999.90;;;;;;;3.55;58.70;99153.88;4933093;28;98604;-69
2022/01/04 09:09:10;;;;;;;1999.90;999.90;;;;;;;3.55;58.56;99140.72;4925081;28;97102;-69
2022/01/04 09:11:39;;;;;;;1999.90;999.90;;;;;;;3.55;58.55;99136.31;4929196;28;97415;-68
2022/01/04 09:14:22;;;;;;;1999.90;999.90;;;;;;;3.58;58.86;99140.78;4916822;28;97617;-68
2022/01/04 09:19:41;;;;;;;1999.90;999.90;;;;;;;3.61;58.95;99118.06;4895424;28;97567;-73
2022/01/04 09:22:09;;;;;;;1999.90;999.90;;;;;;;3.63;58.67;99108.47;4926415;28;97668;-68
2022/01/04 09:24:37;;;;;;;1999.90;999.90;;;;;;;3.62;58.80;99119.88;4928587;28;98020;-68
2022/01/04 09:27:06;;;;;;;1999.90;999.90;;;;;;;3.63;58.47;99128.63;4932803;28;98680;-68
2022/01/04 09:29:34;;;;;;;1999.90;999.90;;;;;;;3.65;58.56;99126.94;4935670;28;99859;-68
2022/01/04 09:32:04;;;;;;;1999.90;999.90;;;;;;;3.68;58.67;99122.63;4938296;28;97096;-68
2022/01/04 09:34:32;;;;;;;1999.90;999.90;;;;;;;3.68;58.51;99106.84;4939853;28;96966;-68
2022/01/04 09:37:00;;;;;;;1999.90;999.90;;;;;;;3.68;58.76;99108.59;4938696;28;100395;-69
2022/01/04 09:39:28;;;;;;;1999.90;999.90;;;;;;;3.69;58.47;99106.03;4941543;28;99065;-69
2022/01/04 09:41:56;;;;;;;1999.90;999.90;;;;;;;3.69;58.33;99094.59;4933624;28;98468;-69
2022/01/04 09:44:27;;;;;;;1999.90;999.90;;;;;;;3.69;58.58;99100.75;4938496;28;96813;-69
2022/01/04 09:46:55;;;;;;;1999.90;999.90;;;;;;;3.68;58.42;99091.06;4933286;28;98829;-69
2022/01/04 09:49:22;;;;;;;1999.90;999.90;;;;;;;3.70;58.60;99092.00;4937663;28;98372;-69
2022/01/04 09:51:51;;;;;;;1999.90;999.90;;;;;;;3.71;58.53;99096.44;4938291;28;96948;-69
2022/01/04 09:54:22;;;;;;;1999.90;999.90;;;;;;;3.72;58.45;99092.94;4942339;28;97226;-69
2022/01/04 09:56:50;;;;;;;1999.90;999.90;;;;;;;3.72;58.55;99082.41;4941511;28;100366;-69
2022/01/04 09:59:18;;;;;;;1999.90;999.90;;;;;;;3.73;58.43;99081.53;4941727;28;96955;-70
2022/01/04 10:01:52;;;;;;;1999.90;999.90;;;;;;;3.73;58.46;99076.28;4938572;28;97430;-69
2022/01/04 10:04:23;;;;;;;1999.90;999.90;;;;;;;3.72;58.34;99076.25;4922798;28;96964;-70
2022/01/04 10:06:59;;;;;;;1999.90;999.90;;;;;;;3.68;58.55;99070.03;4939304;28;97279;-69
2022/01/04 10:09:44;;;;;;;1999.90;999.90;;;;;;;3.67;58.53;99068.28;4938179;28;96977;-69
2022/01/04 10:12:13;;;;;;;1999.90;999.90;;;;;;;3.69;58.65;99077.09;4940705;28;97335;-69
2022/01/04 10:14:43;;;;;;;1999.90;999.90;;;;;;;3.70;58.69;99075.31;4937451;28;96872;-69
2022/01/04 10:17:14;;;;;;;1999.90;999.90;;;;;;;3.72;58.81;99077.16;4939397;28;97808;-69
2022/01/04 10:19:43;;;;;;;1999.90;999.90;;;;;;;3.71;58.67;99070.13;4935842;28;97545;-69
2022/01/04 10:22:15;;;;;;;1999.90;999.90;;;;;;;3.72;58.98;99057.84;4937339;28;96919;-70
2022/01/04 10:24:43;;;;;;;1999.90;999.90;;;;;;;3.71;58.54;99064.88;4922630;28;97172;-70
2022/01/04 10:27:29;;;;;;;1999.90;999.90;;;;;;;3.68;58.78;99056.88;4953297;28;98532;-69
2022/01/04 10:30:28;;;;;;;1999.90;999.90;;;;;;;3.70;59.09;99051.66;4939525;28;98708;-69
2022/01/04 10:33:00;;;;;;;1999.90;999.90;;;;;;;3.72;58.99;99050.84;4900060;28;97014;-69
2022/01/04 10:35:34;;;;;;;1999.90;999.90;;;;;;;3.73;58.62;99049.09;4925525;28;97445;-69
2022/01/04 10:38:10;;;;;;;1999.90;999.90;;;;;;;3.72;58.67;99058.72;4939384;28;99466;-69
2022/01/04 10:40:38;;;;;;;1999.90;999.90;;;;;;;3.72;58.97;99061.38;4936825;28;99533;-69
2022/01/04 10:43:11;;;;;;;1999.90;999.90;;;;;;;3.66;59.26;99055.09;4941606;28;97179;-69
2022/01/04 10:45:40;;;;;;;1999.90;999.90;;;;;;;3.63;59.35;99065.50;4936258;28;97050;-69
2022/01/04 10:48:18;;;;;;;1999.90;999.90;;;;;;;3.57;59.43;99066.25;4938264;28;98329;-69
2022/01/04 10:50:48;;;;;;;1999.90;999.90;;;;;;;3.51;59.25;99060.88;4934775;28;99247;-70
2022/01/04 10:53:19;;;;;;;1999.90;999.90;;;;;;;3.44;59.51;99063.34;4934910;28;97341;-69
2022/01/04 10:55:49;;;;;;;1999.90;999.90;;;;;;;3.39;59.62;99054.44;4937613;28;97897;-70
2022/01/04 10:58:23;;;;;;;1999.90;999.90;;;;;;;3.38;59.52;99052.69;4938608;28;99708;-69
2022/01/04 11:00:54;;;;;;;1999.90;999.90;;;;;;;3.37;59.75;99043.03;4937350;28;98123;-70
2022/01/04 11:03:25;;;;;;;1999.90;999.90;;;;;;;3.38;59.47;99036.91;4936992;28;96997;-71
2022/01/04 11:06:11;;;;;;;1999.90;999.90;;;;;;;3.43;59.63;99023.00;4952115;28;97306;-69
2022/01/04 11:08:39;;;;;;;1999.90;999.90;;;;;;;3.45;59.78;99013.44;4937027;28;99020;-70
2022/01/04 11:11:07;;;;;;;1999.90;999.90;;;;;;;3.49;59.63;99010.00;4935340;28;100671;-70
2022/01/04 11:13:35;;;;;;;1999.90;999.90;;;;;;;3.51;59.64;99010.94;4936209;28;98309;-69
2022/01/04 11:16:04;;;;;;;1999.90;999.90;;;;;;;3.55;59.37;99009.25;4935421;28;97016;-71
2022/01/04 11:18:34;;;;;;;1999.90;999.90;;;;;;;3.57;59.38;99008.41;4937360;28;97037;-70